createdAt,value
2023-06-29T00:01:48.068Z,18.50
2023-06-29T00:06:55.775Z,19.40
2023-06-29T00:12:01.260Z,19.50
2023-06-29T00:14:33.570Z,19.20
2023-06-29T00:17:05.523Z,19.40
2023-06-29T00:19:38.385Z,19.10
2023-06-29T00:22:10.617Z,19.30
2023-06-29T00:24:46.010Z,19.30
2023-06-29T00:27:17.964Z,19.10
2023-06-29T00:29:50.567Z,19.90
2023-06-29T00:32:22.544Z,19.30
2023-06-29T00:34:55.157Z,18.60
2023-06-29T00:37:27.142Z,19.20
2023-06-29T00:39:59.759Z,19.20
2023-06-29T00:42:31.757Z,18.70
2023-06-29T00:45:06.261Z,18.90
2023-06-29T00:47:38.346Z,19.00
2023-06-29T00:50:12.902Z,19.20
2023-06-29T00:52:45.947Z,19.90
2023-06-29T00:55:19.013Z,19.00
2023-06-29T00:57:50.957Z,19.80
2023-06-29T01:00:23.975Z,19.30
2023-06-29T01:08:19.746Z,19.80
2023-06-29T01:10:52.889Z,19.30
2023-06-29T01:13:26.900Z,19.10
2023-06-29T01:16:00.946Z,19.10
2023-06-29T01:18:34.181Z,19.00
2023-06-29T01:21:06.775Z,18.50
2023-06-29T01:23:40.598Z,19.40
2023-06-29T01:26:13.558Z,19.20
2023-06-29T01:28:47.799Z,19.20
2023-06-29T01:31:20.510Z,19.00
2023-06-29T01:36:43.981Z,19.70
2023-06-29T01:39:24.927Z,19.40
2023-06-29T01:41:58.448Z,19.50
2023-06-29T01:44:30.444Z,19.60
2023-06-29T01:47:08.906Z,19.40
2023-06-29T01:49:41.203Z,19.60
2023-06-29T01:52:40.165Z,19.10
2023-06-29T01:55:13.006Z,19.40
2023-06-29T01:57:45.805Z,19.50
2023-06-29T02:00:19.602Z,19.30
2023-06-29T02:02:51.712Z,18.90
2023-06-29T02:10:31.651Z,17.30
2023-06-29T02:15:36.790Z,18.30
2023-06-29T02:18:11.966Z,18.40
2023-06-29T02:20:47.308Z,19.30
2023-06-29T02:23:19.266Z,19.10
2023-06-29T02:25:55.872Z,19.40
2023-06-29T02:31:00.940Z,19.00
2023-06-29T02:33:34.016Z,18.70
2023-06-29T02:36:06.923Z,19.40
2023-06-29T02:38:39.080Z,19.00
2023-06-29T02:41:12.413Z,19.20
2023-06-29T02:43:44.850Z,19.50
2023-06-29T02:46:17.646Z,20.10
2023-06-29T02:48:50.468Z,19.60
2023-06-29T02:51:23.475Z,18.60
2023-06-29T02:53:57.737Z,19.10
2023-06-29T02:56:30.761Z,19.30
2023-06-29T03:01:36.736Z,18.70
2023-06-29T03:04:08.743Z,18.80
2023-06-29T03:06:44.118Z,18.90
2023-06-29T03:09:16.058Z,19.00
2023-06-29T03:11:49.064Z,18.50
2023-06-29T03:16:55.817Z,19.30
2023-06-29T03:19:28.154Z,18.20
2023-06-29T03:22:00.475Z,17.80
2023-06-29T03:24:33.105Z,17.60
2023-06-29T03:27:07.328Z,17.70
2023-06-29T03:32:12.390Z,18.10
2023-06-29T03:34:45.206Z,18.60
2023-06-29T03:37:17.105Z,18.90
2023-06-29T03:47:27.741Z,19.10
2023-06-29T03:50:00.807Z,19.00
2023-06-29T03:52:32.686Z,18.90
2023-06-29T03:55:06.058Z,19.20
2023-06-29T03:57:38.368Z,18.90
2023-06-29T04:00:11.617Z,19.40
2023-06-29T04:02:46.413Z,19.60
2023-06-29T04:05:19.143Z,18.00
2023-06-29T04:07:51.696Z,17.70
2023-06-29T04:15:29.332Z,17.30
2023-06-29T04:18:01.832Z,17.40
2023-06-29T04:20:34.108Z,17.50
2023-06-29T04:28:16.867Z,17.90
2023-06-29T04:30:51.902Z,17.90
2023-06-29T04:35:57.433Z,18.10
2023-06-29T04:38:30.137Z,18.20
2023-06-29T04:41:05.405Z,18.10
2023-06-29T04:43:38.432Z,18.10
2023-06-29T04:48:47.387Z,18.20
2023-06-29T04:51:20.286Z,18.20
2023-06-29T04:53:52.243Z,18.20
2023-06-29T04:56:24.972Z,18.30
2023-06-29T04:58:57.276Z,18.40
2023-06-29T05:01:30.818Z,18.50
2023-06-29T05:04:03.147Z,18.60
2023-06-29T05:06:36.040Z,18.70
2023-06-29T05:11:40.993Z,18.70
2023-06-29T05:14:12.917Z,18.70
2023-06-29T05:16:45.718Z,18.70
2023-06-29T05:19:18.817Z,18.80
2023-06-29T05:21:50.749Z,19.00
2023-06-29T05:24:24.369Z,19.20
2023-06-29T05:29:31.060Z,19.40
2023-06-29T05:40:05.554Z,19.80
2023-06-29T05:55:25.155Z,20.80
2023-06-29T05:57:58.412Z,20.80
2023-06-29T06:05:38.132Z,21.80
2023-06-29T06:08:10.500Z,22.30
2023-06-29T06:13:17.041Z,22.60
2023-06-29T06:15:52.509Z,22.30
2023-06-29T06:20:59.000Z,21.80
2023-06-29T06:23:34.345Z,22.40
2023-06-29T06:26:07.963Z,22.50
2023-06-29T06:31:28.660Z,22.10
2023-06-29T06:34:05.826Z,21.30
2023-06-29T06:39:12.868Z,21.50
2023-06-29T06:49:27.480Z,21.30
2023-06-29T06:52:03.852Z,21.70
2023-06-29T06:54:35.883Z,21.50
2023-06-29T06:57:11.307Z,22.60
2023-06-29T06:59:43.673Z,23.40
2023-06-29T07:02:17.153Z,25.90
2023-06-29T07:04:49.673Z,27.10
2023-06-29T07:07:22.131Z,27.50
2023-06-29T07:09:56.006Z,28.30
2023-06-29T07:12:28.343Z,28.00
2023-06-29T07:15:00.465Z,27.00
2023-06-29T07:17:34.272Z,28.60
2023-06-29T07:25:19.876Z,29.00
2023-06-29T07:27:53.148Z,28.30
2023-06-29T07:30:25.636Z,28.50
2023-06-29T07:32:59.075Z,28.50
2023-06-29T07:35:31.564Z,29.60
2023-06-29T07:40:54.361Z,29.60
2023-06-29T07:43:26.511Z,28.90
2023-06-29T07:46:00.053Z,27.20
2023-06-29T07:48:32.070Z,27.30
2023-06-29T07:56:12.228Z,27.70
2023-06-29T08:01:19.684Z,30.40
2023-06-29T08:04:02.212Z,28.30
2023-06-29T08:09:16.321Z,28.80
2023-06-29T08:11:48.300Z,28.70
2023-06-29T08:14:20.207Z,28.00
2023-06-29T08:16:53.721Z,29.00
2023-06-29T08:19:25.777Z,28.80
2023-06-29T08:22:00.632Z,28.50
2023-06-29T08:24:32.610Z,29.10
2023-06-29T08:27:06.247Z,28.20
2023-06-29T08:29:41.107Z,28.80
2023-06-29T08:32:15.598Z,27.60
2023-06-29T08:34:47.956Z,27.70
2023-06-29T08:37:21.865Z,28.20
2023-06-29T08:39:54.531Z,28.50
2023-06-29T08:42:27.785Z,28.60
2023-06-29T08:45:00.152Z,28.90
2023-06-29T08:47:36.383Z,28.40
2023-06-29T08:50:11.314Z,26.90
2023-06-29T08:52:45.134Z,27.00
2023-06-29T08:55:17.381Z,26.90
2023-06-29T08:57:50.798Z,26.30
2023-06-29T09:00:24.063Z,26.70
2023-06-29T09:02:57.794Z,26.50
2023-06-29T09:05:29.781Z,27.40
2023-06-29T09:13:14.740Z,27.00
2023-06-29T09:18:29.722Z,29.10
2023-06-29T09:21:05.656Z,28.60
2023-06-29T09:23:45.071Z,28.20
2023-06-29T09:26:19.924Z,28.60
2023-06-29T09:29:01.903Z,27.80
2023-06-29T09:34:19.232Z,27.70
2023-06-29T09:36:51.865Z,28.80
2023-06-29T09:40:01.154Z,28.90
2023-06-29T09:42:39.840Z,28.50
2023-06-29T09:45:12.618Z,28.40
2023-06-29T09:50:56.006Z,30.20
2023-06-29T09:53:33.177Z,29.60
2023-06-29T09:56:06.253Z,28.60
2023-06-29T09:58:39.262Z,29.10
2023-06-29T10:01:11.303Z,28.70
2023-06-29T10:03:43.835Z,28.80
2023-06-29T10:06:21.407Z,28.90
2023-06-29T10:08:58.306Z,28.60
2023-06-29T10:11:33.016Z,28.70
2023-06-29T10:14:08.281Z,28.70
2023-06-29T10:16:49.348Z,28.20
2023-06-29T10:19:23.932Z,28.60
2023-06-29T10:22:02.806Z,29.20
2023-06-29T10:27:39.529Z,28.70
2023-06-29T10:30:12.232Z,28.80
2023-06-29T10:32:50.984Z,29.30
2023-06-29T10:35:27.165Z,29.80
2023-06-29T10:40:32.510Z,28.80
2023-06-29T10:43:09.214Z,29.20
2023-06-29T10:45:41.647Z,29.20
2023-06-29T10:48:31.365Z,29.10
2023-06-29T10:51:13.065Z,29.20
2023-06-29T10:53:50.090Z,29.40
2023-06-29T10:56:31.205Z,29.40
2023-06-29T10:59:09.639Z,28.70
2023-06-29T11:01:41.896Z,28.70
2023-06-29T11:06:47.085Z,27.70
2023-06-29T11:09:21.026Z,29.00
2023-06-29T11:11:53.099Z,29.70
2023-06-29T11:14:25.765Z,29.40
2023-06-29T11:16:57.772Z,29.10
2023-06-29T11:22:02.864Z,28.90
2023-06-29T11:24:36.906Z,29.40
2023-06-29T11:27:08.910Z,29.30
2023-06-29T11:29:41.234Z,29.20
2023-06-29T11:32:13.856Z,29.40
2023-06-29T11:34:46.505Z,30.00
2023-06-29T11:37:21.107Z,29.80
2023-06-29T11:42:29.291Z,29.00
2023-06-29T11:45:08.036Z,29.10
2023-06-29T11:50:14.342Z,29.50
2023-06-29T11:52:47.239Z,29.30
2023-06-29T11:55:21.535Z,29.00
2023-06-29T11:57:55.976Z,29.10
2023-06-29T12:00:31.722Z,29.30
2023-06-29T12:03:09.677Z,29.50
2023-06-29T12:05:43.681Z,27.90
2023-06-29T12:08:16.553Z,29.10
2023-06-29T12:10:49.260Z,29.00
2023-06-29T12:13:22.252Z,29.30
2023-06-29T12:18:31.657Z,29.20
2023-06-29T12:21:06.349Z,29.30
2023-06-29T12:23:38.496Z,29.30
2023-06-29T12:26:11.145Z,29.50
2023-06-29T12:31:16.196Z,29.30
2023-06-29T12:36:22.264Z,29.00
2023-06-29T12:38:54.236Z,29.00
2023-06-29T12:43:59.211Z,29.00
2023-06-29T12:46:34.203Z,28.50
2023-06-29T12:49:06.497Z,28.60
2023-06-29T12:51:39.106Z,28.60
2023-06-29T12:59:17.060Z,27.90
2023-06-29T13:04:22.747Z,28.70
2023-06-29T13:06:56.269Z,28.50
2023-06-29T13:09:31.338Z,28.30
2023-06-29T13:12:05.626Z,28.60
2023-06-29T13:14:38.208Z,28.40
2023-06-29T13:17:12.262Z,28.60
2023-06-29T13:19:47.637Z,28.20
2023-06-29T13:22:20.280Z,28.00
2023-06-29T13:27:25.373Z,27.90
2023-06-29T13:35:03.893Z,28.10
2023-06-29T13:40:09.426Z,28.00
2023-06-29T13:42:42.795Z,28.30
2023-06-29T13:45:15.390Z,28.40
2023-06-29T13:47:47.503Z,28.20
2023-06-29T13:50:22.727Z,28.30
2023-06-29T13:52:57.553Z,28.20
2023-06-29T13:55:29.939Z,28.90
2023-06-29T14:03:07.549Z,28.50
2023-06-29T14:08:12.594Z,28.90
2023-06-29T14:10:45.689Z,28.60
2023-06-29T14:13:17.625Z,29.10
2023-06-29T14:15:50.235Z,29.00
2023-06-29T14:18:22.327Z,28.70
2023-06-29T14:20:54.981Z,28.80
2023-06-29T14:23:26.912Z,28.80
2023-06-29T14:26:00.350Z,29.00
2023-06-29T14:28:32.645Z,29.30
2023-06-29T14:31:04.782Z,29.10
2023-06-29T14:33:36.900Z,29.20
2023-06-29T14:36:09.690Z,29.10
2023-06-29T14:38:41.692Z,29.00
2023-06-29T14:43:46.649Z,29.20
2023-06-29T14:48:51.794Z,28.90
2023-06-29T15:06:41.362Z,29.00
2023-06-29T15:14:18.870Z,28.90
2023-06-29T15:16:51.641Z,29.00
2023-06-29T15:19:23.660Z,29.00
2023-06-29T15:22:00.143Z,29.20
2023-06-29T15:24:32.185Z,29.00
2023-06-29T15:27:05.405Z,29.20
2023-06-29T15:29:37.336Z,29.10
2023-06-29T15:37:15.443Z,29.10
2023-06-29T15:39:47.493Z,29.10
2023-06-29T15:44:52.336Z,28.80
2023-06-29T15:47:25.037Z,29.20
2023-06-29T15:49:57.062Z,29.20
2023-06-29T15:52:29.791Z,29.30
2023-06-29T15:55:02.086Z,29.10
2023-06-29T15:57:34.722Z,28.80
2023-06-29T16:00:07.601Z,28.50
2023-06-29T16:05:18.473Z,28.70
2023-06-29T16:07:52.948Z,29.10
2023-06-29T16:10:25.247Z,29.00
2023-06-29T16:18:03.706Z,28.80
2023-06-29T16:25:44.410Z,29.00
2023-06-29T16:28:17.361Z,29.20
2023-06-29T16:38:28.163Z,28.80
2023-06-29T16:41:00.179Z,28.70
2023-06-29T16:43:32.803Z,28.40
2023-06-29T16:46:05.018Z,28.50
2023-06-29T16:48:37.658Z,28.40
2023-06-29T16:51:09.672Z,28.70
2023-06-29T16:53:42.342Z,28.90
2023-06-29T16:56:14.322Z,28.80
2023-06-29T16:58:47.130Z,28.50
2023-06-29T17:01:19.283Z,28.80
2023-06-29T17:03:52.323Z,28.80
2023-06-29T17:08:58.419Z,28.40
2023-06-29T17:11:30.381Z,28.40
2023-06-29T17:16:35.783Z,28.30
2023-06-29T17:21:42.243Z,28.00
2023-06-29T17:24:14.832Z,28.10
2023-06-29T17:26:46.782Z,28.10
2023-06-29T17:29:19.210Z,28.10
2023-06-29T17:31:51.143Z,28.20
2023-06-29T17:34:23.801Z,27.90
2023-06-29T17:36:55.837Z,27.80
2023-06-29T17:39:28.431Z,27.90
2023-06-29T17:42:00.646Z,28.00
2023-06-29T17:44:33.346Z,28.10
2023-06-29T17:47:06.018Z,28.20
2023-06-29T17:49:38.601Z,28.10
2023-06-29T17:52:11.215Z,28.00
2023-06-29T17:54:43.794Z,28.00
2023-06-29T17:57:15.718Z,28.10
2023-06-29T17:59:48.334Z,28.00
2023-06-29T18:04:53.565Z,27.70
2023-06-29T18:15:10.089Z,27.70
2023-06-29T18:17:42.064Z,27.50
2023-06-29T18:20:14.717Z,27.40
2023-06-29T18:30:26.613Z,27.40
2023-06-29T18:38:04.838Z,27.00
2023-06-29T18:40:37.191Z,26.80
2023-06-29T18:48:15.163Z,26.60
2023-06-29T18:51:07.867Z,26.60
2023-06-29T18:53:40.885Z,26.50
2023-06-29T18:58:48.361Z,26.40
2023-06-29T19:03:54.485Z,26.30
2023-06-29T19:06:26.870Z,26.30
2023-06-29T19:08:59.690Z,26.20
2023-06-29T19:16:38.905Z,26.00
2023-06-29T19:21:48.952Z,26.00
2023-06-29T19:24:22.029Z,25.90
2023-06-29T19:26:54.369Z,25.80
2023-06-29T19:29:26.362Z,25.70
2023-06-29T19:37:05.377Z,25.40
2023-06-29T19:42:10.095Z,25.40
2023-06-29T19:47:15.190Z,25.20
2023-06-29T19:49:47.557Z,25.20
2023-06-29T19:52:20.356Z,25.10
2023-06-29T19:54:52.718Z,24.90
2023-06-29T19:57:24.735Z,24.90
2023-06-29T19:59:56.814Z,24.80
2023-06-29T20:02:29.708Z,24.60
2023-06-29T20:07:35.380Z,24.60
2023-06-29T20:10:08.199Z,24.70
2023-06-29T20:12:40.539Z,24.70
2023-06-29T20:15:12.498Z,24.60
2023-06-29T20:20:18.072Z,24.40
2023-06-29T20:22:50.455Z,24.30
2023-06-29T20:25:22.865Z,24.30
2023-06-29T20:30:27.974Z,24.20
2023-06-29T20:33:00.294Z,24.10
2023-06-29T20:35:33.288Z,24.10
2023-06-29T20:38:05.752Z,24.10
2023-06-29T20:43:10.446Z,24.10
2023-06-29T20:45:49.728Z,23.90
2023-06-29T20:48:22.138Z,23.80
2023-06-29T20:51:00.947Z,23.70
2023-06-29T20:56:17.753Z,23.80
2023-06-29T20:58:49.671Z,23.70
2023-06-29T21:04:14.911Z,23.70
2023-06-29T21:06:47.288Z,23.70
2023-06-29T21:09:19.339Z,23.70
2023-06-29T21:14:27.517Z,23.70
2023-06-29T21:17:00.476Z,23.60
2023-06-29T21:19:33.705Z,23.60
2023-06-29T21:22:06.935Z,23.40
2023-06-29T21:24:40.988Z,23.50
2023-06-29T21:27:19.997Z,23.40
2023-06-29T21:32:25.547Z,23.30
2023-06-29T21:34:57.666Z,23.30
2023-06-29T21:37:31.339Z,23.30
2023-06-29T21:40:06.722Z,23.50
2023-06-29T21:45:13.084Z,23.20
2023-06-29T21:50:17.985Z,23.20
2023-06-29T21:52:50.705Z,23.00
2023-06-29T21:55:23.034Z,23.00
2023-06-29T21:57:55.000Z,23.00
2023-06-29T22:00:27.745Z,22.90
2023-06-29T22:02:59.822Z,23.00
2023-06-29T22:05:32.955Z,23.00
2023-06-29T22:08:05.117Z,23.00
2023-06-29T22:10:38.212Z,22.80
2023-06-29T22:13:13.333Z,22.70
2023-06-29T22:15:46.625Z,22.60
2023-06-29T22:18:21.590Z,22.90
2023-06-29T22:26:03.240Z,22.80
2023-06-29T22:28:35.161Z,22.70
2023-06-29T22:31:08.325Z,22.80
2023-06-29T22:33:40.838Z,22.60
2023-06-29T22:36:15.272Z,22.70
2023-06-29T22:38:47.886Z,23.00
2023-06-29T22:41:19.811Z,22.70
2023-06-29T22:43:55.449Z,22.60
2023-06-29T22:46:28.483Z,22.70
2023-06-29T22:51:33.880Z,22.70
2023-06-29T22:54:06.483Z,22.60
2023-06-29T22:59:13.404Z,22.50
2023-06-29T23:06:55.019Z,22.40
2023-06-29T23:09:28.599Z,22.60
2023-06-29T23:14:38.478Z,22.40
2023-06-29T23:17:10.388Z,22.90
2023-06-29T23:19:45.957Z,22.90
2023-06-29T23:22:19.884Z,22.70
2023-06-29T23:24:53.950Z,22.70
2023-06-29T23:29:59.683Z,22.50
2023-06-29T23:32:32.009Z,22.60
2023-06-29T23:35:09.067Z,22.50
2023-06-29T23:40:16.098Z,22.30
2023-06-29T23:42:49.269Z,22.20
2023-06-29T23:45:22.480Z,22.10
2023-06-29T23:47:56.297Z,22.10
2023-06-29T23:50:28.216Z,22.10
2023-06-29T23:53:01.049Z,22.00
2023-06-29T23:55:33.003Z,21.90
2023-06-29T23:58:06.286Z,22.00
